createdAt,value
2016-03-14T00:00:56.495Z,0
2016-03-14T00:01:56.482Z,0
2016-03-14T00:02:56.485Z,0
2016-03-14T00:03:56.487Z,0
2016-03-14T00:04:56.490Z,0
2016-03-14T00:05:56.493Z,0
2016-03-14T00:06:56.449Z,0
2016-03-14T00:07:56.467Z,0
2016-03-14T00:08:56.470Z,0
2016-03-14T00:09:56.458Z,0
2016-03-14T00:10:56.460Z,0
2016-03-14T00:11:56.463Z,0
2016-03-14T00:12:56.450Z,0
2016-03-14T00:13:56.452Z,0
2016-03-14T00:14:56.486Z,0
2016-03-14T00:15:58.036Z,0
2016-03-14T00:16:56.460Z,0
2016-03-14T00:17:56.464Z,0
2016-03-14T00:18:56.450Z,0
2016-03-14T00:19:56.453Z,0
2016-03-14T00:20:56.471Z,0
2016-03-14T00:21:56.443Z,0
2016-03-14T00:22:56.460Z,0
2016-03-14T00:23:56.448Z,0
2016-03-14T00:24:56.435Z,0
2016-03-14T00:25:56.437Z,0
2016-03-14T00:26:56.440Z,0
2016-03-14T00:27:56.427Z,0
2016-03-14T00:28:56.430Z,0
2016-03-14T00:29:56.432Z,0
2016-03-14T00:30:56.435Z,0
2016-03-14T00:31:56.423Z,0
2016-03-14T00:32:56.440Z,0
2016-03-14T00:33:56.428Z,0
2016-03-14T00:34:56.446Z,0
2016-03-14T00:35:56.417Z,0
2016-03-14T00:36:56.437Z,0
2016-03-14T00:37:56.423Z,0
2016-03-14T00:38:56.426Z,0
2016-03-14T00:39:56.553Z,0
2016-03-14T00:40:56.431Z,0
2016-03-14T00:41:56.418Z,0
2016-03-14T00:42:56.452Z,0
2016-03-14T00:43:56.424Z,0
2016-03-14T00:44:56.411Z,0
2016-03-14T00:45:56.429Z,0
2016-03-14T00:46:56.416Z,0
2016-03-14T00:47:56.403Z,0
2016-03-14T00:48:56.405Z,0
2016-03-14T00:49:56.408Z,0
2016-03-14T00:50:56.411Z,0
2016-03-14T00:51:56.398Z,0
2016-03-14T00:52:56.401Z,0
2016-03-14T00:53:56.388Z,0
2016-03-14T00:54:56.437Z,0
2016-03-14T00:55:56.393Z,0
2016-03-14T00:56:56.396Z,0
2016-03-14T00:57:56.399Z,0
2016-03-14T00:58:56.301Z,0
2016-03-14T00:59:56.233Z,0
2016-03-14T01:00:56.267Z,0
2016-03-14T01:01:57.028Z,0
2016-03-14T01:02:56.406Z,0
2016-03-14T01:03:56.394Z,0
2016-03-14T01:04:56.396Z,0
2016-03-14T01:05:56.383Z,0
2016-03-14T01:06:56.417Z,0
2016-03-14T01:07:56.388Z,0
2016-03-14T01:08:56.361Z,0
2016-03-14T01:09:56.816Z,0
2016-03-14T01:10:56.366Z,0
2016-03-14T01:11:56.368Z,0
2016-03-14T01:12:56.371Z,0
2016-03-14T01:13:56.374Z,0
2016-03-14T01:14:56.376Z,0
2016-03-14T01:15:56.379Z,0
2016-03-14T01:16:56.381Z,0
2016-03-14T01:17:56.368Z,0
2016-03-14T01:18:56.403Z,0
2016-03-14T01:19:56.374Z,0
2016-03-14T01:20:56.376Z,0
2016-03-14T01:21:56.348Z,0
2016-03-14T01:22:56.757Z,0
2016-03-14T01:23:56.384Z,0
2016-03-14T01:24:56.387Z,0
2016-03-14T01:25:56.359Z,0
2016-03-14T01:26:56.376Z,0
2016-03-14T01:27:56.333Z,0
2016-03-14T01:28:56.226Z,0
2016-03-14T01:29:56.339Z,0
2016-03-14T01:30:56.373Z,0
2016-03-14T01:31:56.344Z,0
2016-03-14T01:32:56.347Z,0
2016-03-14T01:33:56.333Z,0
2016-03-14T01:34:56.352Z,0
2016-03-14T01:35:56.323Z,0
2016-03-14T01:36:56.450Z,0
2016-03-14T01:37:56.313Z,0
2016-03-14T01:38:56.347Z,0
2016-03-14T01:39:56.209Z,0
2016-03-14T01:40:56.336Z,0
2016-03-14T01:41:56.371Z,0
2016-03-14T01:42:56.311Z,0
2016-03-14T01:43:56.360Z,0
2016-03-14T01:44:56.316Z,0
2016-03-14T01:45:56.335Z,0
2016-03-14T01:46:56.165Z,0
2016-03-14T01:47:56.371Z,0
2016-03-14T01:48:56.311Z,0
2016-03-14T01:49:56.360Z,0
2016-03-14T01:50:56.332Z,0
2016-03-14T01:51:56.335Z,0
2016-03-14T01:52:56.321Z,0
2016-03-14T01:53:56.340Z,0
2016-03-14T01:54:56.373Z,0
2016-03-14T01:55:56.284Z,0
2016-03-14T01:56:56.317Z,0
2016-03-14T01:57:56.289Z,0
2016-03-14T01:58:56.292Z,0
2016-03-14T01:59:56.309Z,0
2016-03-14T02:00:56.281Z,0
2016-03-14T02:01:56.315Z,0
2016-03-14T02:02:56.286Z,0
2016-03-14T02:03:56.305Z,0
2016-03-14T02:04:56.276Z,0
2016-03-14T02:05:56.311Z,0
2016-03-14T02:06:56.266Z,0
2016-03-14T02:07:56.300Z,0
2016-03-14T02:08:56.272Z,0
2016-03-14T02:09:56.305Z,0
2016-03-14T02:10:56.261Z,0
2016-03-14T02:11:56.295Z,0
2016-03-14T02:12:56.282Z,0
2016-03-14T02:13:56.316Z,0
2016-03-14T02:14:56.272Z,0
2016-03-14T02:15:56.290Z,0
2016-03-14T02:16:56.277Z,0
2016-03-14T02:17:56.296Z,0
2016-03-14T02:18:56.251Z,0
2016-03-14T02:19:56.269Z,0
2016-03-14T02:20:56.272Z,0
2016-03-14T02:21:56.274Z,0
2016-03-14T02:22:56.262Z,0
2016-03-14T02:23:56.248Z,0
2016-03-14T02:24:56.252Z,0
2016-03-14T02:25:56.270Z,0
2016-03-14T02:26:56.257Z,0
2016-03-14T02:27:56.276Z,0
2016-03-14T02:28:56.247Z,0
2016-03-14T02:29:56.250Z,0
2016-03-14T02:30:56.284Z,0
2016-03-14T02:31:56.255Z,0
2016-03-14T02:32:56.273Z,0
2016-03-14T02:33:56.244Z,0
2016-03-14T02:34:56.264Z,0
2016-03-14T02:35:56.250Z,0
2016-03-14T02:36:56.237Z,0
2016-03-14T02:37:56.240Z,0
2016-03-14T02:38:56.258Z,0
2016-03-14T02:39:56.261Z,0
2016-03-14T02:40:56.248Z,0
2016-03-14T02:41:56.250Z,0
2016-03-14T02:42:56.237Z,0
2016-03-14T02:43:56.225Z,0
2016-03-14T02:44:56.227Z,0
2016-03-14T02:45:56.214Z,0
2016-03-14T02:46:56.233Z,0
2016-03-14T02:47:56.235Z,0
2016-03-14T02:48:56.214Z,0
2016-03-14T02:49:56.205Z,0
2016-03-14T02:50:56.210Z,0
2016-03-14T02:51:56.169Z,0
2016-03-14T02:52:56.144Z,0
2016-03-14T02:53:56.138Z,0
2016-03-14T02:54:56.153Z,0
2016-03-14T02:55:56.119Z,0
2016-03-14T02:56:56.133Z,0
2016-03-14T02:57:56.116Z,0
2016-03-14T02:58:56.130Z,0
2016-03-14T02:59:56.147Z,0
2016-03-14T03:00:56.102Z,0
2016-03-14T03:01:56.134Z,0
2016-03-14T03:02:56.120Z,0
2016-03-14T03:03:56.122Z,0
2016-03-14T03:04:56.092Z,0
2016-03-14T03:05:56.125Z,0
2016-03-14T03:06:56.080Z,0
2016-03-14T03:07:56.098Z,0
2016-03-14T03:08:56.085Z,0
2016-03-14T03:09:56.088Z,0
2016-03-14T03:10:56.074Z,0
2016-03-14T03:11:56.124Z,0
2016-03-14T03:12:56.079Z,0
2016-03-14T03:13:56.114Z,0
2016-03-14T03:14:56.069Z,0
2016-03-14T03:15:56.104Z,0
2016-03-14T03:16:56.074Z,0
2016-03-14T03:17:56.078Z,0
2016-03-14T03:18:56.080Z,0
2016-03-14T03:19:56.068Z,0
2016-03-14T03:20:56.054Z,0
2016-03-14T03:21:56.104Z,0
2016-03-14T03:22:56.059Z,0
2016-03-14T03:23:56.078Z,0
2016-03-14T03:24:56.050Z,0
2016-03-14T03:25:56.084Z,0
2016-03-14T03:26:56.055Z,0
2016-03-14T03:27:56.042Z,0
2016-03-14T03:28:56.044Z,0
2016-03-14T03:29:56.063Z,0
2016-03-14T03:30:56.050Z,0
2016-03-14T03:31:56.053Z,0
2016-03-14T03:32:56.040Z,0
2016-03-14T03:33:56.042Z,0
2016-03-14T03:34:56.045Z,0
2016-03-14T03:35:56.064Z,0
2016-03-14T03:36:55.895Z,0
2016-03-14T03:37:56.038Z,0
2016-03-14T03:38:56.041Z,0
2016-03-14T03:39:56.027Z,0
2016-03-14T03:40:56.030Z,0
2016-03-14T03:41:56.033Z,0
2016-03-14T03:42:56.020Z,0
2016-03-14T03:43:56.022Z,0
2016-03-14T03:44:56.041Z,0
2016-03-14T03:45:56.027Z,0
2016-03-14T03:46:56.015Z,0
2016-03-14T03:47:56.017Z,0
2016-03-14T03:48:56.021Z,0
2016-03-14T03:49:56.007Z,0
2016-03-14T03:50:56.026Z,0
2016-03-14T03:51:56.012Z,0
2016-03-14T03:52:56.016Z,0
2016-03-14T03:53:56.003Z,0
2016-03-14T03:54:56.006Z,0
2016-03-14T03:55:56.008Z,0
2016-03-14T03:56:55.995Z,0
2016-03-14T03:57:55.997Z,0
2016-03-14T03:58:56.031Z,0
2016-03-14T03:59:56.003Z,0
2016-03-14T04:00:56.053Z,0
2016-03-14T04:01:55.977Z,0
2016-03-14T04:02:56.011Z,0
2016-03-14T04:03:55.982Z,0
2016-03-14T04:04:56.000Z,0
2016-03-14T04:05:55.988Z,0
2016-03-14T04:06:55.991Z,0
2016-03-14T04:07:56.071Z,0
2016-03-14T04:08:55.980Z,0
2016-03-14T04:09:55.999Z,0
2016-03-14T04:10:55.986Z,0
2016-03-14T04:11:56.005Z,0
2016-03-14T04:12:55.975Z,0
2016-03-14T04:13:55.962Z,0
2016-03-14T04:14:55.965Z,0
2016-03-14T04:15:55.968Z,0
2016-03-14T04:16:56.018Z,0
2016-03-14T04:17:55.974Z,0
2016-03-14T04:18:55.977Z,0
2016-03-14T04:19:55.962Z,0
2016-03-14T04:20:55.981Z,0
2016-03-14T04:21:55.953Z,0
2016-03-14T04:22:55.971Z,0
2016-03-14T04:23:55.959Z,0
2016-03-14T04:24:55.977Z,0
2016-03-14T04:25:55.948Z,0
2016-03-14T04:26:55.951Z,0
2016-03-14T04:27:55.954Z,0
2016-03-14T04:28:55.941Z,0
2016-03-14T04:29:55.943Z,0
2016-03-14T04:30:55.962Z,0
2016-03-14T04:31:55.933Z,0
2016-03-14T04:32:55.936Z,0
2016-03-14T04:33:55.954Z,0
2016-03-14T04:34:55.942Z,0
2016-03-14T04:35:55.928Z,0
2016-03-14T04:36:55.962Z,0
2016-03-14T04:37:55.949Z,0
2016-03-14T04:38:55.952Z,0
2016-03-14T04:39:55.939Z,0
2016-03-14T04:40:55.958Z,0
2016-03-14T04:41:55.928Z,0
2016-03-14T04:42:55.916Z,0
2016-03-14T04:43:55.933Z,0
2016-03-14T04:44:55.922Z,0
2016-03-14T04:45:55.924Z,0
2016-03-14T04:46:55.911Z,0
2016-03-14T04:47:55.913Z,0
2016-03-14T04:48:55.901Z,0
2016-03-14T04:49:55.918Z,0
2016-03-14T04:50:55.937Z,0
2016-03-14T04:51:55.893Z,0
2016-03-14T04:52:55.958Z,0
2016-03-14T04:53:55.898Z,0
2016-03-14T04:54:55.901Z,0
2016-03-14T04:55:55.904Z,0
2016-03-14T04:56:55.890Z,0
2016-03-14T04:57:55.893Z,0
2016-03-14T04:58:55.896Z,0
2016-03-14T04:59:55.898Z,0
2016-03-14T05:00:55.886Z,0
2016-03-14T05:01:55.920Z,0
2016-03-14T05:02:55.876Z,0
2016-03-14T05:03:55.895Z,0
2016-03-14T05:04:55.881Z,0
2016-03-14T05:05:55.900Z,0
2016-03-14T05:06:55.870Z,0
2016-03-14T05:07:55.873Z,0
2016-03-14T05:08:55.861Z,0
2016-03-14T05:09:55.895Z,0
2016-03-14T05:10:55.881Z,0
2016-03-14T05:11:55.884Z,0
2016-03-14T05:12:55.871Z,0
2016-03-14T05:13:55.889Z,0
2016-03-14T05:14:55.892Z,0
2016-03-14T05:15:55.864Z,0
2016-03-14T05:16:55.882Z,0
2016-03-14T05:17:55.854Z,0
2016-03-14T05:18:55.887Z,0
2016-03-14T05:19:55.860Z,0
2016-03-14T05:20:55.862Z,0
2016-03-14T05:21:55.849Z,0
2016-03-14T05:22:55.882Z,0
2016-03-14T05:23:55.854Z,0
2016-03-14T05:24:55.840Z,0
2016-03-14T05:25:55.843Z,0
2016-03-14T05:26:55.862Z,0
2016-03-14T05:27:55.849Z,0
2016-03-14T05:28:55.867Z,0
2016-03-14T05:29:55.854Z,0
2016-03-14T05:30:55.825Z,0
2016-03-14T05:31:55.828Z,0
2016-03-14T05:32:55.831Z,0
2016-03-14T05:33:55.850Z,0
2016-03-14T05:34:55.836Z,0
2016-03-14T05:35:55.823Z,0
2016-03-14T05:36:55.686Z,0
2016-03-14T05:37:55.689Z,0
2016-03-14T05:38:55.832Z,0
2016-03-14T05:39:55.819Z,0
2016-03-14T05:40:55.822Z,0
2016-03-14T05:41:55.824Z,0
2016-03-14T05:42:55.811Z,0
2016-03-14T05:43:55.814Z,0
2016-03-14T05:44:55.817Z,0
2016-03-14T05:45:55.788Z,0
2016-03-14T05:46:55.807Z,0
2016-03-14T05:47:55.824Z,0
2016-03-14T05:48:55.796Z,0
2016-03-14T05:49:55.815Z,0
2016-03-14T05:50:55.801Z,0
2016-03-14T05:51:55.804Z,0
2016-03-14T05:52:55.791Z,5
2016-03-14T05:53:55.826Z,5
2016-03-14T05:54:55.812Z,5
2016-03-14T05:55:55.940Z,5
2016-03-14T05:56:55.802Z,5
2016-03-14T05:57:55.804Z,5
2016-03-14T05:58:55.807Z,5
2016-03-14T05:59:55.794Z,5
2016-03-14T06:00:55.812Z,10
2016-03-14T06:01:55.815Z,10
2016-03-14T06:02:55.803Z,10
2016-03-14T06:03:55.789Z,10
2016-03-14T06:04:55.792Z,15
2016-03-14T06:05:55.778Z,15
2016-03-14T06:06:55.772Z,15
2016-03-14T06:07:55.775Z,15
2016-03-14T06:08:55.777Z,15
2016-03-14T06:09:55.764Z,15
2016-03-14T06:10:55.813Z,20
2016-03-14T06:11:55.769Z,20
2016-03-14T06:12:55.771Z,25
2016-03-14T06:13:55.775Z,25
2016-03-14T06:14:55.777Z,30
2016-03-14T06:15:55.764Z,30
2016-03-14T06:16:55.766Z,30
2016-03-14T06:17:55.769Z,30
2016-03-14T06:18:55.771Z,30
2016-03-14T06:19:55.775Z,35
2016-03-14T06:20:55.762Z,35
2016-03-14T06:21:55.765Z,35
2016-03-14T06:22:55.767Z,35
2016-03-14T06:23:55.754Z,40
2016-03-14T06:24:55.742Z,45
2016-03-14T06:25:55.854Z,45
2016-03-14T06:26:55.747Z,50
2016-03-14T06:27:55.750Z,55
2016-03-14T06:28:55.783Z,55
2016-03-14T06:29:55.739Z,55
2016-03-14T06:30:55.742Z,60
2016-03-14T06:31:55.761Z,60
2016-03-14T06:32:55.764Z,60
2016-03-14T06:33:55.766Z,60
2016-03-14T06:34:55.753Z,60
2016-03-14T06:35:55.739Z,70
2016-03-14T06:36:55.758Z,75
2016-03-14T06:37:55.730Z,65
2016-03-14T06:38:55.748Z,70
2016-03-14T06:39:55.719Z,75
2016-03-14T06:40:55.785Z,65
2016-03-14T06:41:55.724Z,70
2016-03-14T06:42:55.728Z,70
2016-03-14T06:43:55.730Z,70
2016-03-14T06:44:55.733Z,70
2016-03-14T06:45:55.719Z,75
2016-03-14T06:46:55.722Z,85
2016-03-14T06:47:55.724Z,75
2016-03-14T06:48:55.727Z,75
2016-03-14T06:49:55.730Z,75
2016-03-14T06:50:55.718Z,80
2016-03-14T06:51:55.735Z,90
2016-03-14T06:52:55.738Z,95
2016-03-14T06:53:55.725Z,100
2016-03-14T06:54:55.712Z,110
2016-03-14T06:55:55.903Z,105
2016-03-14T06:56:55.687Z,105
2016-03-14T06:57:55.689Z,100
2016-03-14T06:58:55.708Z,100
2016-03-14T06:59:55.711Z,105
2016-03-14T07:00:55.698Z,115
2016-03-14T07:01:55.717Z,115
2016-03-14T07:02:55.719Z,120
2016-03-14T07:03:55.706Z,115
2016-03-14T07:04:55.724Z,120
2016-03-14T07:05:55.727Z,100
2016-03-14T07:06:55.714Z,105
2016-03-14T07:07:55.701Z,105
2016-03-14T07:08:55.704Z,110
2016-03-14T07:09:55.706Z,115
2016-03-14T07:10:55.772Z,125
2016-03-14T07:11:55.696Z,110
2016-03-14T07:12:55.699Z,100
2016-03-14T07:13:55.716Z,90
2016-03-14T07:14:55.689Z,90
2016-03-14T07:15:55.722Z,85
2016-03-14T07:16:55.694Z,90
2016-03-14T07:17:55.696Z,95
2016-03-14T07:18:55.684Z,90
2016-03-14T07:19:55.718Z,85
2016-03-14T07:20:55.689Z,85
2016-03-14T07:21:55.707Z,90
2016-03-14T07:22:55.679Z,90
2016-03-14T07:23:55.696Z,90
2016-03-14T07:24:55.685Z,85
2016-03-14T07:25:55.781Z,90
2016-03-14T07:26:55.690Z,85
2016-03-14T07:27:55.676Z,90
2016-03-14T07:28:55.695Z,95
2016-03-14T07:29:55.697Z,100
2016-03-14T07:30:55.684Z,110
2016-03-14T07:31:55.687Z,110
2016-03-14T07:32:55.690Z,105
2016-03-14T07:33:55.678Z,100
2016-03-14T07:34:55.680Z,100
2016-03-14T07:35:55.698Z,95
2016-03-14T07:36:55.670Z,85
2016-03-14T07:37:55.720Z,95
2016-03-14T07:38:55.675Z,85
2016-03-14T07:39:55.693Z,100
2016-03-14T07:40:55.727Z,100
2016-03-14T07:41:55.699Z,90
2016-03-14T07:42:55.670Z,95
2016-03-14T07:43:55.689Z,85
2016-03-14T07:44:55.675Z,80
2016-03-14T07:45:55.663Z,85
2016-03-14T07:46:55.665Z,90
2016-03-14T07:47:55.668Z,90
2016-03-14T07:48:55.655Z,95
2016-03-14T07:49:55.674Z,100
2016-03-14T07:50:55.676Z,95
2016-03-14T07:51:55.663Z,105
2016-03-14T07:52:55.666Z,105
2016-03-14T07:53:55.669Z,105
2016-03-14T07:54:55.671Z,105
2016-03-14T07:55:55.690Z,95
2016-03-14T07:56:55.660Z,100
2016-03-14T07:57:55.679Z,105
2016-03-14T07:58:55.665Z,90
2016-03-14T07:59:55.669Z,90
2016-03-14T08:00:55.671Z,90
2016-03-14T08:01:55.659Z,90
2016-03-14T08:02:55.661Z,90
2016-03-14T08:03:55.648Z,95
2016-03-14T08:04:55.651Z,85
2016-03-14T08:05:55.654Z,80
2016-03-14T08:06:55.669Z,85
2016-03-14T08:07:55.656Z,85
2016-03-14T08:08:55.674Z,90
2016-03-14T08:09:55.693Z,90
2016-03-14T08:10:55.680Z,90
2016-03-14T08:11:55.667Z,90
2016-03-14T08:12:55.654Z,90
2016-03-14T08:13:55.657Z,85
2016-03-14T08:14:55.659Z,90
2016-03-14T08:15:55.677Z,90
2016-03-14T08:16:55.665Z,85
2016-03-14T08:17:55.668Z,90
2016-03-14T08:18:55.670Z,90
2016-03-14T08:19:55.657Z,95
2016-03-14T08:20:55.659Z,90
2016-03-14T08:21:55.662Z,80
2016-03-14T08:22:55.665Z,75
2016-03-14T08:23:55.652Z,70
2016-03-14T08:24:55.654Z,75
2016-03-14T08:25:55.657Z,70
2016-03-14T08:26:55.660Z,75
2016-03-14T08:27:55.648Z,70
2016-03-14T08:28:55.665Z,70
2016-03-14T08:29:55.653Z,65
2016-03-14T08:30:55.655Z,70
2016-03-14T08:31:55.658Z,70
2016-03-14T08:32:55.645Z,70
2016-03-14T08:33:55.679Z,70
2016-03-14T08:34:55.650Z,65
2016-03-14T08:35:55.669Z,70
2016-03-14T08:36:55.672Z,70
2016-03-14T08:37:55.658Z,70
2016-03-14T08:38:55.489Z,70
2016-03-14T08:39:55.648Z,70
2016-03-14T08:40:55.651Z,75
2016-03-14T08:41:55.654Z,75
2016-03-14T08:42:55.688Z,70
2016-03-14T08:43:55.659Z,70
2016-03-14T08:44:55.631Z,70
2016-03-14T08:45:55.649Z,70
2016-03-14T08:46:55.652Z,75
2016-03-14T08:47:55.638Z,70
2016-03-14T08:48:55.657Z,70
2016-03-14T08:49:55.707Z,70
2016-03-14T08:50:55.647Z,70
2016-03-14T08:51:55.649Z,70
2016-03-14T08:52:55.652Z,75
2016-03-14T08:53:55.640Z,80
2016-03-14T08:54:55.642Z,80
2016-03-14T08:55:55.629Z,85
2016-03-14T08:56:55.648Z,85
2016-03-14T08:57:55.650Z,80
2016-03-14T08:58:55.637Z,80
2016-03-14T08:59:55.656Z,85
2016-03-14T09:00:55.643Z,90
2016-03-14T09:01:55.645Z,95
2016-03-14T09:02:55.632Z,90
2016-03-14T09:03:55.650Z,85
2016-03-14T09:04:55.669Z,95
2016-03-14T09:05:55.625Z,90
2016-03-14T09:06:55.659Z,90
2016-03-14T09:07:55.645Z,90
2016-03-14T09:08:55.633Z,90
2016-03-14T09:09:55.635Z,90
2016-03-14T09:10:55.685Z,90
2016-03-14T09:11:55.625Z,95
2016-03-14T09:12:55.643Z,100
2016-03-14T09:13:55.646Z,100
2016-03-14T09:14:55.664Z,105
2016-03-14T09:15:55.636Z,105
2016-03-14T09:16:55.638Z,110
2016-03-14T09:17:55.657Z,110
2016-03-14T09:18:55.643Z,110
2016-03-14T09:19:55.631Z,105
2016-03-14T09:20:55.477Z,100
2016-03-14T09:21:55.652Z,105
2016-03-14T09:22:55.623Z,110
2016-03-14T09:23:55.641Z,115
2016-03-14T09:24:55.643Z,115
2016-03-14T09:25:55.632Z,115
2016-03-14T09:26:55.649Z,120
2016-03-14T09:27:55.637Z,125
2016-03-14T09:28:55.654Z,120
2016-03-14T09:29:55.626Z,120
2016-03-14T09:30:55.645Z,120
2016-03-14T09:31:55.616Z,120
2016-03-14T09:32:55.651Z,125
2016-03-14T09:33:55.622Z,125
2016-03-14T09:34:55.671Z,115
2016-03-14T09:35:55.627Z,110
2016-03-14T09:36:55.645Z,115
2016-03-14T09:37:55.633Z,110
2016-03-14T09:38:55.636Z,105
2016-03-14T09:39:55.638Z,105
2016-03-14T09:40:55.641Z,95
2016-03-14T09:41:55.628Z,95
2016-03-14T09:42:55.631Z,90
2016-03-14T09:43:55.649Z,85
2016-03-14T09:44:55.620Z,90
2016-03-14T09:45:55.639Z,90
2016-03-14T09:46:55.657Z,90
2016-03-14T09:47:55.644Z,95
2016-03-14T09:48:55.646Z,100
2016-03-14T09:49:55.633Z,95
2016-03-14T09:50:55.636Z,90
2016-03-14T09:51:55.498Z,95
2016-03-14T09:52:55.627Z,100
2016-03-14T09:53:55.644Z,100
2016-03-14T09:54:55.632Z,100
2016-03-14T09:55:55.634Z,100
2016-03-14T09:56:55.637Z,105
2016-03-14T09:57:55.623Z,100
2016-03-14T09:58:55.642Z,100
2016-03-14T09:59:55.645Z,100
2016-03-14T10:00:55.632Z,100
2016-03-14T10:01:55.651Z,100
2016-03-14T10:02:55.637Z,100
2016-03-14T10:03:55.640Z,110
2016-03-14T10:04:55.643Z,100
2016-03-14T10:05:55.629Z,95
2016-03-14T10:06:55.669Z,100
2016-03-14T10:07:55.644Z,100
2016-03-14T10:08:55.648Z,100
2016-03-14T10:09:55.635Z,105
2016-03-14T10:10:55.638Z,115
2016-03-14T10:11:55.624Z,105
2016-03-14T10:12:55.643Z,100
2016-03-14T10:13:55.646Z,105
2016-03-14T10:14:55.633Z,115
2016-03-14T10:15:55.635Z,110
2016-03-14T10:16:55.638Z,105
2016-03-14T10:17:55.640Z,105
2016-03-14T10:18:55.643Z,110
2016-03-14T10:19:55.646Z,110
2016-03-14T10:20:55.617Z,110
2016-03-14T10:21:55.636Z,110
2016-03-14T10:22:55.638Z,105
2016-03-14T10:23:55.626Z,100
2016-03-14T10:24:55.659Z,100
2016-03-14T10:25:55.631Z,100
2016-03-14T10:26:55.634Z,110
2016-03-14T10:27:55.620Z,110
2016-03-14T10:28:55.671Z,115
2016-03-14T10:29:55.642Z,115
2016-03-14T10:30:55.629Z,120
2016-03-14T10:31:55.647Z,110
2016-03-14T10:32:55.618Z,110
2016-03-14T10:33:55.637Z,105
2016-03-14T10:34:55.624Z,105
2016-03-14T10:35:55.626Z,105
2016-03-14T10:36:55.644Z,110
2016-03-14T10:37:55.631Z,110
2016-03-14T10:38:55.634Z,115
2016-03-14T10:39:55.637Z,120
2016-03-14T10:40:55.639Z,130
2016-03-14T10:41:55.642Z,125
2016-03-14T10:42:55.630Z,135
2016-03-14T10:43:55.648Z,140
2016-03-14T10:44:55.494Z,145
2016-03-14T10:45:55.638Z,145
2016-03-14T10:46:55.719Z,150
2016-03-14T10:47:55.643Z,150
2016-03-14T10:48:55.474Z,155
2016-03-14T10:49:55.649Z,160
2016-03-14T10:50:55.635Z,155
2016-03-14T10:51:55.654Z,155
2016-03-14T10:52:55.640Z,155
2016-03-14T10:53:55.659Z,150
2016-03-14T10:54:55.646Z,145
2016-03-14T10:55:55.633Z,135
2016-03-14T10:56:55.637Z,125
2016-03-14T10:57:55.623Z,120
2016-03-14T10:58:55.642Z,115
2016-03-14T10:59:55.644Z,115
2016-03-14T11:00:55.648Z,110
2016-03-14T11:01:55.666Z,115
2016-03-14T11:02:55.637Z,120
2016-03-14T11:03:55.656Z,125
2016-03-14T11:04:55.643Z,140
2016-03-14T11:05:55.630Z,150
2016-03-14T11:06:55.664Z,150
2016-03-14T11:07:55.635Z,140
2016-03-14T11:08:55.638Z,145
2016-03-14T11:09:55.640Z,145
2016-03-14T11:10:55.659Z,140
2016-03-14T11:11:55.645Z,140
2016-03-14T11:12:55.648Z,130
2016-03-14T11:13:55.667Z,135
2016-03-14T11:14:55.654Z,140
2016-03-14T11:15:55.657Z,155
2016-03-14T11:16:55.659Z,170
2016-03-14T11:17:55.647Z,165
2016-03-14T11:18:55.680Z,165
2016-03-14T11:19:55.667Z,155
2016-03-14T11:20:55.655Z,145
2016-03-14T11:21:55.645Z,155
2016-03-14T11:22:55.647Z,165
2016-03-14T11:23:55.680Z,170
2016-03-14T11:24:55.652Z,160
2016-03-14T11:25:55.733Z,155
2016-03-14T11:26:55.689Z,155
2016-03-14T11:27:55.660Z,160
2016-03-14T11:28:55.663Z,165
2016-03-14T11:29:55.650Z,165
2016-03-14T11:30:55.668Z,165
2016-03-14T11:31:55.672Z,165
2016-03-14T11:32:55.658Z,165
2016-03-14T11:33:55.677Z,165
2016-03-14T11:34:55.633Z,165
2016-03-14T11:35:55.682Z,165
2016-03-14T11:36:55.685Z,155
2016-03-14T11:37:55.640Z,145
2016-03-14T11:38:55.674Z,140
2016-03-14T11:39:55.677Z,140
2016-03-14T11:40:55.679Z,135
2016-03-14T11:41:55.683Z,135
2016-03-14T11:42:55.670Z,125
2016-03-14T11:43:55.672Z,130
2016-03-14T11:44:55.659Z,135
2016-03-14T11:45:55.693Z,145
2016-03-14T11:46:55.665Z,135
2016-03-14T11:47:55.667Z,130
2016-03-14T11:48:55.670Z,130
2016-03-14T11:49:55.564Z,135
2016-03-14T11:50:55.692Z,135
2016-03-14T11:51:55.694Z,145
2016-03-14T11:53:14.714Z,145
2016-03-14T11:53:55.683Z,145
2016-03-14T11:54:55.679Z,145
2016-03-14T11:55:55.673Z,145
2016-03-14T11:56:55.540Z,145
2016-03-14T11:57:55.658Z,150
2016-03-14T11:58:55.641Z,160
2016-03-14T11:59:55.638Z,165
2016-03-14T12:00:55.622Z,165
2016-03-14T12:01:55.621Z,170
2016-03-14T12:02:55.620Z,175
2016-03-14T12:03:55.619Z,175
2016-03-14T12:04:55.464Z,165
2016-03-14T12:05:55.636Z,160
2016-03-14T12:06:55.654Z,160
2016-03-14T12:07:55.625Z,160
2016-03-14T12:08:55.626Z,160
2016-03-14T12:09:55.628Z,155
2016-03-14T12:10:55.615Z,160
2016-03-14T12:11:55.680Z,160
2016-03-14T12:12:55.620Z,155
2016-03-14T12:13:55.637Z,160
2016-03-14T12:14:55.624Z,160
2016-03-14T12:15:55.626Z,155
2016-03-14T12:16:55.645Z,155
2016-03-14T12:17:55.631Z,150
2016-03-14T12:18:55.618Z,145
2016-03-14T12:19:55.636Z,150
2016-03-14T12:20:55.638Z,155
2016-03-14T12:21:55.626Z,160
2016-03-14T12:22:55.643Z,160
2016-03-14T12:23:55.632Z,160
2016-03-14T12:24:55.618Z,155
2016-03-14T12:25:55.637Z,160
2016-03-14T12:26:55.685Z,160
2016-03-14T12:27:55.642Z,160
2016-03-14T12:28:55.628Z,155
2016-03-14T12:29:55.648Z,155
2016-03-14T12:30:55.635Z,155
2016-03-14T12:31:55.481Z,155
2016-03-14T12:32:55.484Z,155
2016-03-14T12:33:55.642Z,150
2016-03-14T12:34:55.629Z,150
2016-03-14T12:35:55.491Z,155
2016-03-14T12:36:55.651Z,160
2016-03-14T12:37:55.653Z,155
2016-03-14T12:38:55.656Z,155
2016-03-14T12:39:55.643Z,150
2016-03-14T12:40:55.662Z,145
2016-03-14T12:41:55.680Z,145
2016-03-14T12:42:55.651Z,140
2016-03-14T12:43:55.653Z,135
2016-03-14T12:44:55.641Z,145
2016-03-14T12:45:55.658Z,150
2016-03-14T12:46:55.505Z,150
2016-03-14T12:47:55.664Z,145
2016-03-14T12:48:55.651Z,140
2016-03-14T12:49:55.669Z,140
2016-03-14T12:50:55.657Z,140
2016-03-14T12:51:55.660Z,140
2016-03-14T12:52:55.677Z,150
2016-03-14T12:53:55.666Z,145
2016-03-14T12:54:55.683Z,140
2016-03-14T12:55:55.685Z,140
2016-03-14T12:56:55.689Z,140
2016-03-14T12:57:55.707Z,140
2016-03-14T12:58:55.679Z,135
2016-03-14T12:59:55.681Z,140
2016-03-14T13:00:55.699Z,135
2016-03-14T13:01:55.701Z,135
2016-03-14T13:02:55.689Z,135
2016-03-14T13:03:55.676Z,130
2016-03-14T13:04:55.678Z,125
2016-03-14T13:05:55.681Z,130
2016-03-14T13:06:55.700Z,130
2016-03-14T13:07:55.702Z,135
2016-03-14T13:08:55.674Z,140
2016-03-14T13:09:55.692Z,140
2016-03-14T13:10:55.711Z,140
2016-03-14T13:11:55.714Z,135
2016-03-14T13:12:55.684Z,130
2016-03-14T13:13:55.703Z,125
2016-03-14T13:14:55.705Z,125
2016-03-14T13:15:55.708Z,130
2016-03-14T13:16:55.711Z,125
2016-03-14T13:17:55.698Z,125
2016-03-14T13:18:55.732Z,130
2016-03-14T13:19:55.719Z,125
2016-03-14T13:20:55.705Z,125
2016-03-14T13:21:55.708Z,115
2016-03-14T13:22:55.696Z,105
2016-03-14T13:23:55.760Z,100
2016-03-14T13:24:55.717Z,95
2016-03-14T13:25:55.704Z,100
2016-03-14T13:26:55.707Z,100
2016-03-14T13:27:55.724Z,100
2016-03-14T13:28:55.713Z,95
2016-03-14T13:29:55.715Z,90
2016-03-14T13:30:55.732Z,90
2016-03-14T13:31:55.735Z,85
2016-03-14T13:32:55.707Z,90
2016-03-14T13:33:55.726Z,95
2016-03-14T13:34:55.744Z,100
2016-03-14T13:35:55.715Z,115
2016-03-14T13:36:55.734Z,105
2016-03-14T13:37:55.783Z,105
2016-03-14T13:38:55.723Z,105
2016-03-14T13:39:55.726Z,105
2016-03-14T13:40:55.775Z,95
2016-03-14T13:41:55.748Z,95
2016-03-14T13:42:55.734Z,95
2016-03-14T13:43:55.800Z,105
2016-03-14T13:44:55.755Z,110
2016-03-14T13:45:55.742Z,115
2016-03-14T13:46:55.761Z,115
2016-03-14T13:47:55.747Z,110
2016-03-14T13:48:55.766Z,110
2016-03-14T13:49:55.753Z,110
2016-03-14T13:50:55.741Z,115
2016-03-14T13:51:55.743Z,110
2016-03-14T13:52:55.792Z,105
2016-03-14T13:53:55.763Z,100
2016-03-14T13:54:55.752Z,95
2016-03-14T13:55:55.754Z,95
2016-03-14T13:56:55.740Z,105
2016-03-14T13:57:55.759Z,110
2016-03-14T13:58:55.855Z,115
2016-03-14T13:59:55.780Z,110
2016-03-14T14:00:55.735Z,105
2016-03-14T14:01:55.598Z,105
2016-03-14T14:02:55.756Z,105
2016-03-14T14:03:55.743Z,105
2016-03-14T14:04:55.762Z,110
2016-03-14T14:05:55.765Z,105
2016-03-14T14:06:55.757Z,105
2016-03-14T14:07:55.759Z,110
2016-03-14T14:08:55.777Z,115
2016-03-14T14:09:55.780Z,110
2016-03-14T14:10:55.767Z,110
2016-03-14T14:11:55.801Z,115
2016-03-14T14:12:55.773Z,110
2016-03-14T14:13:55.792Z,105
2016-03-14T14:14:55.763Z,95
2016-03-14T14:15:55.766Z,90
2016-03-14T14:16:55.783Z,90
2016-03-14T14:17:55.771Z,85